Time;durP1;ratioP1;P1;durP2;ratioP2;P2;SDS_P1;SDS_P2;PMS_P1;PMS_P2;Temp;Humidity;BMP_temperature;BMP_pressure;BME280_temperature;BME280_humidity;BME280_pressure;Samples;Min_cycle;Max_cycle;Signal;HPM_P1;HPM_P2
2024/03/09 00:02:23;;;;;;;17.73;10.47;;;15.40;99.90;;;;;;5016968;28;20388;-73
2024/03/09 00:04:49;;;;;;;17.37;9.97;;;15.40;99.90;;;;;;5028435;28;20021;-73
2024/03/09 00:07:15;;;;;;;15.63;9.33;;;15.40;99.90;;;;;;5029610;28;20114;-74
2024/03/09 00:09:41;;;;;;;19.93;10.10;;;15.40;99.90;;;;;;5030210;28;20462;-74
2024/03/09 00:12:11;;;;;;;16.63;9.80;;;15.40;99.90;;;;;;5030730;28;20048;-74
2024/03/09 00:14:38;;;;;;;17.25;9.93;;;15.30;99.90;;;;;;5030866;28;20048;-74
2024/03/09 00:17:04;;;;;;;16.27;9.65;;;15.30;99.90;;;;;;5029615;28;20116;-74
2024/03/09 00:19:29;;;;;;;20.75;10.15;;;15.30;99.90;;;;;;5029381;28;20034;-74
2024/03/09 00:21:56;;;;;;;17.37;9.93;;;15.30;99.90;;;;;;5028928;28;20033;-74
2024/03/09 00:24:22;;;;;;;17.13;10.05;;;15.30;99.90;;;;;;5030662;28;20017;-74
2024/03/09 00:26:47;;;;;;;17.30;10.10;;;15.30;99.90;;;;;;5030076;28;20526;-74
2024/03/09 00:29:13;;;;;;;16.90;10.43;;;15.30;99.90;;;;;;5030124;28;20079;-74
2024/03/09 00:31:39;;;;;;;18.87;9.90;;;15.20;99.90;;;;;;5028833;28;20117;-74
2024/03/09 00:34:05;;;;;;;14.93;9.57;;;15.20;99.90;;;;;;5028538;28;20036;-74
2024/03/09 00:36:30;;;;;;;17.63;10.10;;;15.20;99.90;;;;;;5030093;28;20458;-74
2024/03/09 00:38:56;;;;;;;17.33;10.53;;;15.20;99.90;;;;;;5029656;28;20061;-73
2024/03/09 00:41:22;;;;;;;18.07;9.83;;;15.20;99.90;;;;;;5030218;28;20108;-74
2024/03/09 00:43:50;;;;;;;17.60;9.40;;;15.20;99.90;;;;;;5028432;28;20041;-74
2024/03/09 00:46:16;;;;;;;20.90;11.43;;;15.20;99.90;;;;;;5029860;28;20125;-74
2024/03/09 00:48:43;;;;;;;15.83;9.63;;;15.20;99.90;;;;;;5029933;28;20411;-74
2024/03/09 00:51:10;;;;;;;16.85;10.25;;;15.10;99.90;;;;;;5028627;28;20611;-74
2024/03/09 00:53:36;;;;;;;16.05;9.70;;;15.10;99.90;;;;;;5029236;28;20045;-74
2024/03/09 00:56:05;;;;;;;16.17;9.63;;;15.10;99.90;;;;;;5028866;28;20024;-74
2024/03/09 00:58:32;;;;;;;17.48;10.30;;;15.10;99.90;;;;;;5029217;28;20037;-74
2024/03/09 01:00:58;;;;;;;17.40;10.15;;;15.10;99.90;;;;;;5028111;28;20430;-75
2024/03/09 01:03:24;;;;;;;19.43;10.90;;;15.10;99.90;;;;;;5029577;28;20037;-74
2024/03/09 01:05:49;;;;;;;20.08;10.63;;;15.00;99.90;;;;;;5028709;28;20032;-74
2024/03/09 01:08:15;;;;;;;15.77;10.37;;;15.00;99.90;;;;;;5029728;28;20537;-73
2024/03/09 01:10:41;;;;;;;19.30;10.57;;;15.10;99.90;;;;;;5028060;28;20033;-74
2024/03/09 01:13:08;;;;;;;18.80;10.57;;;15.00;99.90;;;;;;5028390;28;20022;-74
2024/03/09 01:15:35;;;;;;;;;;;15.00;99.90;;;;;;5029785;28;20026;-74
2024/03/09 01:18:02;;;;;;;17.23;10.60;;;15.00;99.90;;;;;;5029211;28;20621;-73
2024/03/09 01:20:28;;;;;;;14.75;9.50;;;15.00;99.90;;;;;;5029593;28;20025;-74
2024/03/09 01:22:54;;;;;;;16.80;10.35;;;15.00;99.90;;;;;;5029288;28;20103;-74
2024/03/09 01:25:20;;;;;;;14.20;9.70;;;15.00;99.90;;;;;;5030292;28;20458;-75
2024/03/09 01:27:46;;;;;;;18.53;10.27;;;14.90;99.90;;;;;;5032296;28;20098;-74
2024/03/09 01:30:12;;;;;;;16.70;9.80;;;15.00;99.90;;;;;;5033241;28;20374;-74
2024/03/09 01:32:43;;;;;;;17.03;10.43;;;15.00;99.90;;;;;;5033734;28;20033;-74
2024/03/09 01:35:09;;;;;;;17.50;10.48;;;15.00;99.90;;;;;;5032131;28;20017;-74
2024/03/09 01:37:35;;;;;;;17.03;10.73;;;14.90;99.90;;;;;;5033042;28;20032;-74
2024/03/09 01:40:01;;;;;;;18.23;10.97;;;14.90;99.90;;;;;;5033452;28;20163;-74
2024/03/09 01:42:28;;;;;;;16.55;9.65;;;14.90;99.90;;;;;;5033588;28;20091;-74
2024/03/09 01:44:56;;;;;;;18.10;10.35;;;14.90;99.90;;;;;;5032068;28;20033;-74
2024/03/09 01:47:23;;;;;;;17.67;10.45;;;14.90;99.90;;;;;;5033581;28;20021;-75
2024/03/09 01:49:52;;;;;;;17.83;10.93;;;14.90;99.90;;;;;;5031657;28;20030;-74
2024/03/09 01:52:18;;;;;;;17.70;10.43;;;14.80;99.90;;;;;;5031002;28;20629;-74
2024/03/09 01:54:47;;;;;;;17.25;10.18;;;14.80;99.90;;;;;;5032792;28;20029;-74
2024/03/09 01:57:13;;;;;;;15.77;9.98;;;14.80;99.90;;;;;;5029131;28;20033;-75
2024/03/09 01:59:45;;;;;;;17.45;10.25;;;14.80;99.90;;;;;;5031411;28;20364;-74
2024/03/09 02:02:11;;;;;;;16.92;10.68;;;14.80;99.90;;;;;;5030608;28;20034;-75
2024/03/09 02:04:37;;;;;;;18.38;10.10;;;14.80;99.90;;;;;;5031215;28;20024;-74
2024/03/09 02:07:03;;;;;;;17.27;9.77;;;14.80;99.90;;;;;;5031680;28;20645;-74
2024/03/09 02:09:29;;;;;;;16.90;10.20;;;14.80;99.90;;;;;;5031560;28;20022;-75
2024/03/09 02:12:00;;;;;;;18.70;10.70;;;14.80;99.90;;;;;;5032982;28;20026;-74
2024/03/09 02:14:28;;;;;;;18.90;10.57;;;14.70;99.90;;;;;;5031375;28;20052;-74
2024/03/09 02:16:55;;;;;;;18.60;10.88;;;14.70;99.90;;;;;;5018955;28;20160;-74
2024/03/09 02:19:21;;;;;;;16.08;10.32;;;14.70;99.90;;;;;;5032911;28;20028;-74
2024/03/09 02:21:47;;;;;;;18.80;10.80;;;14.70;99.90;;;;;;5031369;28;20120;-75
2024/03/09 02:24:19;;;;;;;18.25;10.82;;;14.70;99.90;;;;;;5031552;28;20112;-75
2024/03/09 02:26:46;;;;;;;19.45;11.15;;;14.70;99.90;;;;;;5030713;28;20075;-74
2024/03/09 02:29:13;;;;;;;17.45;10.65;;;14.70;99.90;;;;;;5032302;28;20026;-75
2024/03/09 02:31:39;;;;;;;17.90;9.75;;;14.70;99.90;;;;;;5031422;28;20040;-74
2024/03/09 02:34:05;;;;;;;18.65;10.95;;;14.70;99.90;;;;;;5024569;28;20024;-75
2024/03/09 02:36:35;;;;;;;18.10;10.40;;;14.60;99.90;;;;;;5031024;28;20030;-74
2024/03/09 02:39:02;;;;;;;18.55;10.52;;;14.60;99.90;;;;;;5032041;28;20029;-74
2024/03/09 02:41:28;;;;;;;17.10;10.32;;;14.60;99.90;;;;;;5031502;28;20029;-74
2024/03/09 02:43:55;;;;;;;18.53;10.53;;;14.60;99.90;;;;;;5030966;28;20033;-74
2024/03/09 02:46:22;;;;;;;16.83;10.02;;;14.60;99.90;;;;;;5032135;28;20025;-75
2024/03/09 02:48:48;;;;;;;17.23;10.43;;;14.60;99.90;;;;;;5030424;28;20084;-74
2024/03/09 02:51:17;;;;;;;17.38;10.30;;;14.60;99.90;;;;;;5031106;28;20181;-74
2024/03/09 02:53:43;;;;;;;17.48;10.57;;;14.60;99.90;;;;;;5031637;28;20049;-74
2024/03/09 02:56:13;;;;;;;17.85;10.73;;;14.60;99.90;;;;;;5030454;28;20528;-74
2024/03/09 02:58:39;;;;;;;17.90;10.85;;;14.50;99.90;;;;;;5029984;28;20034;-74
2024/03/09 03:01:07;;;;;;;17.88;10.57;;;14.50;99.90;;;;;;5031756;28;20048;-74
2024/03/09 03:06:21;;;;;;;18.52;10.60;;;14.50;99.90;;;;;;5031281;28;20029;-73
2024/03/09 03:08:48;;;;;;;21.25;11.18;;;14.50;99.90;;;;;;5031235;28;20485;-74
2024/03/09 03:11:18;;;;;;;19.70;10.75;;;14.50;99.90;;;;;;5030093;28;20068;-75
2024/03/09 03:13:45;;;;;;;18.92;10.27;;;14.50;99.90;;;;;;5031578;28;20032;-74
2024/03/09 03:16:19;;;;;;;18.33;10.55;;;14.50;99.90;;;;;;5031139;28;20108;-74
2024/03/09 03:18:48;;;;;;;16.40;10.20;;;14.50;99.90;;;;;;5026917;28;20021;-74
2024/03/09 03:21:14;;;;;;;16.10;9.70;;;14.40;99.90;;;;;;5030187;28;20730;-74
2024/03/09 03:23:42;;;;;;;22.83;11.27;;;14.40;99.90;;;;;;5031664;28;20475;-74
2024/03/09 03:26:12;;;;;;;15.98;9.55;;;14.40;99.90;;;;;;5030442;28;20029;-74
2024/03/09 03:28:39;;;;;;;17.52;10.48;;;14.40;99.90;;;;;;5061601;28;20033;-74
2024/03/09 03:31:05;;;;;;;19.95;11.27;;;14.40;99.90;;;;;;5031709;28;20454;-74
2024/03/09 03:33:38;;;;;;;17.63;10.95;;;14.40;99.90;;;;;;5031084;28;20026;-74
2024/03/09 03:36:07;;;;;;;16.63;10.32;;;14.40;99.90;;;;;;5030197;28;20458;-74
2024/03/09 03:38:34;;;;;;;17.73;10.07;;;14.30;99.90;;;;;;5029962;28;20682;-74
2024/03/09 03:41:01;;;;;;;18.17;9.93;;;14.40;99.90;;;;;;5029816;28;20076;-74
2024/03/09 03:43:28;;;;;;;17.25;10.30;;;14.30;99.90;;;;;;5031047;28;20029;-74
2024/03/09 03:45:54;;;;;;;18.48;11.30;;;14.30;99.90;;;;;;5030891;28;20025;-74
2024/03/09 03:48:19;;;;;;;17.97;11.03;;;14.30;99.90;;;;;;5030400;28;20025;-74
2024/03/09 03:50:45;;;;;;;18.60;10.70;;;14.30;99.90;;;;;;5031320;28;20025;-74
2024/03/09 03:53:11;;;;;;;17.67;10.35;;;14.30;99.90;;;;;;5030517;28;20041;-74
2024/03/09 03:55:40;;;;;;;19.03;11.23;;;14.30;99.90;;;;;;5031166;28;20501;-74
2024/03/09 03:58:06;;;;;;;17.02;10.07;;;14.30;99.90;;;;;;5030646;28;20505;-74
2024/03/09 04:00:33;;;;;;;22.10;11.23;;;14.20;99.90;;;;;;5030516;28;20466;-75
2024/03/09 04:02:59;;;;;;;17.20;10.82;;;14.20;99.90;;;;;;5029431;28;20041;-74
2024/03/09 04:05:29;;;;;;;20.20;11.30;;;14.20;99.90;;;;;;5029687;28;20045;-74
2024/03/09 04:07:56;;;;;;;19.42;11.13;;;14.20;99.90;;;;;;5025729;28;20405;-74
2024/03/09 04:10:22;;;;;;;16.15;10.32;;;14.20;99.90;;;;;;5053331;28;20031;-74
2024/03/09 04:12:48;;;;;;;23.87;12.10;;;14.20;99.90;;;;;;5030298;28;20034;-74
2024/03/09 04:15:14;;;;;;;17.90;9.97;;;14.20;99.90;;;;;;5030404;28;20026;-74
2024/03/09 04:17:42;;;;;;;19.40;11.55;;;14.10;99.90;;;;;;5030666;28;20374;-74
2024/03/09 04:20:09;;;;;;;18.83;9.88;;;14.20;99.90;;;;;;5028906;28;20037;-74
2024/03/09 04:22:35;;;;;;;;;;;14.10;99.90;;;;;;5030615;28;20045;-75
2024/03/09 04:25:01;;;;;;;19.98;9.90;;;14.20;99.90;;;;;;5030497;28;19905;-75
2024/03/09 04:27:31;;;;;;;19.93;10.43;;;14.10;99.90;;;;;;5062394;28;20037;-75
2024/03/09 04:30:01;;;;;;;19.02;10.68;;;14.10;99.90;;;;;;5030081;28;20030;-75
2024/03/09 04:32:27;;;;;;;15.88;9.98;;;14.10;99.90;;;;;;5029954;28;20025;-75
2024/03/09 04:34:53;;;;;;;17.93;10.40;;;14.10;99.90;;;;;;5062237;28;20072;-74
2024/03/09 04:37:27;;;;;;;17.73;10.45;;;14.10;99.90;;;;;;5030067;28;20022;-75
2024/03/09 04:39:56;;;;;;;19.50;10.75;;;14.00;99.90;;;;;;5030298;28;20137;-74
2024/03/09 04:42:24;;;;;;;17.55;9.63;;;14.00;99.90;;;;;;5029646;28;20029;-74
2024/03/09 04:44:54;;;;;;;16.17;10.52;;;14.00;99.90;;;;;;5062344;28;20493;-74
2024/03/09 04:47:20;;;;;;;16.55;10.50;;;14.00;99.90;;;;;;5028884;28;20021;-74
2024/03/09 04:49:49;;;;;;;14.57;9.48;;;14.00;99.90;;;;;;5030609;28;20327;-74
2024/03/09 04:52:15;;;;;;;18.65;11.07;;;14.00;99.90;;;;;;5029477;28;20088;-75
2024/03/09 04:54:44;;;;;;;18.40;10.93;;;14.00;99.90;;;;;;5030662;28;20171;-74
2024/03/09 04:57:17;;;;;;;17.40;10.52;;;13.90;99.90;;;;;;5029854;28;20104;-74
2024/03/09 04:59:43;;;;;;;17.83;10.63;;;14.00;99.90;;;;;;5029822;28;20110;-74
2024/03/09 05:02:10;;;;;;;19.63;11.07;;;14.00;99.90;;;;;;5034009;28;20065;-74
2024/03/09 05:04:36;;;;;;;19.23;10.45;;;13.90;99.90;;;;;;5033512;28;20056;-74
2024/03/09 05:07:05;;;;;;;16.45;10.13;;;14.00;99.90;;;;;;5066002;28;20025;-74
2024/03/09 05:09:31;;;;;;;18.75;11.00;;;13.90;99.90;;;;;;5034214;28;20025;-75
2024/03/09 05:12:00;;;;;;;15.03;9.60;;;13.90;99.90;;;;;;5032913;28;20029;-74
2024/03/09 05:14:25;;;;;;;18.58;10.68;;;13.90;99.90;;;;;;5033943;28;20033;-74
2024/03/09 05:16:51;;;;;;;16.53;10.03;;;13.90;99.90;;;;;;5033798;28;20025;-74
2024/03/09 05:19:17;;;;;;;14.97;9.13;;;13.90;99.90;;;;;;5031960;28;20044;-74
2024/03/09 05:21:44;;;;;;;17.63;10.47;;;13.90;99.90;;;;;;5065844;28;20142;-74
2024/03/09 05:24:10;;;;;;;17.45;10.82;;;13.90;99.90;;;;;;5033879;28;20358;-75
2024/03/09 05:26:36;;;;;;;19.57;10.80;;;13.90;99.90;;;;;;5033610;28;20026;-75
2024/03/09 05:29:02;;;;;;;18.73;10.33;;;13.80;99.90;;;;;;5033185;28;20265;-74
2024/03/09 05:31:30;;;;;;;18.92;10.90;;;13.80;99.90;;;;;;5033289;28;20556;-74
2024/03/09 05:33:56;;;;;;;18.58;11.02;;;13.80;99.90;;;;;;5033581;28;20044;-74
2024/03/09 05:36:23;;;;;;;16.42;10.57;;;13.80;99.90;;;;;;5033523;28;20022;-75
2024/03/09 05:38:49;;;;;;;19.10;10.85;;;13.80;99.90;;;;;;5033443;28;20135;-75
2024/03/09 05:41:16;;;;;;;16.73;10.30;;;13.80;99.90;;;;;;5033646;28;20104;-74
2024/03/09 05:43:47;;;;;;;17.50;10.18;;;13.80;99.90;;;;;;5032459;28;20041;-75
2024/03/09 05:46:19;;;;;;;20.75;11.05;;;13.80;99.90;;;;;;5031995;28;20103;-75
2024/03/09 05:48:45;;;;;;;19.77;10.57;;;13.80;99.90;;;;;;5033291;28;20021;-75
2024/03/09 05:51:14;;;;;;;18.75;10.45;;;13.80;99.90;;;;;;5032188;28;20335;-75
2024/03/09 05:53:41;;;;;;;17.88;10.35;;;13.80;99.90;;;;;;5052388;28;20073;-75
2024/03/09 05:56:07;;;;;;;;;;;13.70;99.90;;;;;;5031289;28;20045;-74
2024/03/09 05:58:33;;;;;;;17.63;10.18;;;13.70;99.90;;;;;;5033666;28;19913;-74
2024/03/09 06:00:59;;;;;;;15.50;10.17;;;13.70;99.90;;;;;;5032843;28;20034;-74
2024/03/09 06:03:26;;;;;;;19.67;10.57;;;13.70;99.90;;;;;;5031302;28;20111;-74
2024/03/09 06:05:54;;;;;;;17.60;10.13;;;13.70;99.90;;;;;;5033069;28;20113;-74
2024/03/09 06:08:21;;;;;;;19.98;11.40;;;13.70;99.90;;;;;;5031481;28;20051;-74
2024/03/09 06:10:50;;;;;;;18.88;10.75;;;13.70;99.90;;;;;;5031348;28;20030;-74
2024/03/09 06:13:19;;;;;;;17.35;10.45;;;13.70;99.90;;;;;;5032612;28;20528;-74
2024/03/09 06:15:47;;;;;;;20.35;10.73;;;13.70;99.90;;;;;;5031581;28;20073;-75
2024/03/09 06:18:19;;;;;;;17.80;10.45;;;13.70;99.90;;;;;;5032333;28;20045;-74
2024/03/09 06:20:46;;;;;;;17.90;10.52;;;13.70;99.90;;;;;;5031325;28;20048;-74
2024/03/09 06:23:14;;;;;;;17.95;10.52;;;13.70;99.90;;;;;;5030916;28;20033;-74
2024/03/09 06:25:40;;;;;;;19.50;10.77;;;13.70;99.90;;;;;;5031223;28;20485;-74
2024/03/09 06:28:08;;;;;;;18.95;10.43;;;13.70;99.90;;;;;;5063898;28;20468;-73
2024/03/09 06:30:35;;;;;;;18.90;10.13;;;13.70;99.90;;;;;;5031226;28;20033;-74
2024/03/09 06:33:01;;;;;;;17.00;10.25;;;13.70;99.90;;;;;;5031433;28;20025;-74
2024/03/09 06:35:27;;;;;;;17.43;9.90;;;13.70;99.90;;;;;;5032687;28;20690;-74
2024/03/09 06:38:00;;;;;;;17.23;10.03;;;13.70;99.90;;;;;;5064249;28;20029;-74
2024/03/09 06:40:31;;;;;;;19.25;10.55;;;13.70;99.90;;;;;;5030543;28;20028;-74
2024/03/09 06:43:01;;;;;;;18.33;10.60;;;13.70;99.90;;;;;;5031100;28;20025;-74
2024/03/09 06:45:27;;;;;;;16.92;10.00;;;13.70;99.90;;;;;;5030864;28;20195;-74
2024/03/09 06:47:59;;;;;;;17.95;9.27;;;13.70;99.90;;;;;;5032664;28;20033;-74
2024/03/09 06:50:29;;;;;;;18.05;9.82;;;13.70;99.90;;;;;;5031444;28;20087;-74
2024/03/09 06:52:55;;;;;;;18.63;10.00;;;13.70;99.90;;;;;;5064075;28;20052;-74
2024/03/09 06:55:25;;;;;;;20.48;10.23;;;13.70;99.90;;;;;;5030973;28;20103;-74
2024/03/09 06:57:54;;;;;;;20.08;11.10;;;13.80;99.90;;;;;;5031850;28;20053;-75
2024/03/09 07:00:21;;;;;;;17.23;10.30;;;13.90;99.90;;;;;;5030536;28;20036;-74
2024/03/09 07:02:49;;;;;;;22.05;10.85;;;14.00;99.90;;;;;;5031747;28;20026;-74
2024/03/09 07:05:15;;;;;;;19.98;10.98;;;14.00;99.90;;;;;;5032025;28;20375;-74
2024/03/09 07:07:41;;;;;;;26.65;11.63;;;14.00;99.90;;;;;;5031620;28;20362;-74
2024/03/09 07:10:12;;;;;;;25.67;10.82;;;14.00;99.90;;;;;;5030188;28;20021;-75
2024/03/09 07:12:40;;;;;;;20.75;10.85;;;14.00;99.90;;;;;;5031368;28;20494;-75
2024/03/09 07:15:17;;;;;;;18.80;11.13;;;14.00;99.90;;;;;;5031796;28;20097;-76
2024/03/09 07:17:48;;;;;;;29.55;12.55;;;14.00;99.90;;;;;;5029927;28;20025;-74
2024/03/09 07:20:16;;;;;;;25.70;12.23;;;14.30;99.90;;;;;;5030648;28;20104;-74
2024/03/09 07:22:49;;;;;;;29.08;11.40;;;14.70;99.90;;;;;;5029290;28;20026;-74
2024/03/09 07:25:25;;;;;;;24.05;12.82;;;15.10;99.90;;;;;;5031683;28;20072;-74
2024/03/09 07:27:56;;;;;;;22.60;13.55;;;15.30;99.90;;;;;;5030406;28;20489;-74
2024/03/09 07:30:22;;;;;;;27.60;12.00;;;15.40;99.90;;;;;;5030435;28;20083;-74
2024/03/09 07:32:49;;;;;;;26.00;12.43;;;15.50;99.90;;;;;;5030991;28;20038;-74
2024/03/09 07:35:16;;;;;;;25.63;12.45;;;15.60;99.90;;;;;;5029761;28;20030;-74
2024/03/09 07:37:53;;;;;;;23.45;12.55;;;15.60;99.90;;;;;;5030726;28;20029;-74
2024/03/09 07:40:26;;;;;;;24.65;13.20;;;15.70;99.90;;;;;;5029367;28;20107;-74
2024/03/09 07:42:53;;;;;;;24.90;12.43;;;15.70;99.90;;;;;;5029071;28;20092;-74
2024/03/09 07:45:22;;;;;;;18.42;12.32;;;15.50;99.90;;;;;;5032431;28;20029;-75
2024/03/09 07:47:52;;;;;;;22.50;12.00;;;15.50;99.90;;;;;;5029794;28;20030;-74
2024/03/09 07:50:21;;;;;;;19.95;12.55;;;15.40;99.90;;;;;;5030950;28;20079;-74
2024/03/09 07:52:53;;;;;;;22.23;12.00;;;15.50;99.90;;;;;;5024522;28;20042;-73
2024/03/09 07:55:20;;;;;;;23.35;12.88;;;15.60;99.90;;;;;;5027262;28;20470;-73
2024/03/09 07:57:57;;;;;;;21.73;12.02;;;15.90;99.90;;;;;;5029573;28;20030;-73
2024/03/09 08:00:27;;;;;;;28.30;16.52;;;16.10;99.80;;;;;;5030107;28;20363;-73
2024/03/09 08:02:56;;;;;;;29.27;17.45;;;16.20;99.60;;;;;;5028638;28;20029;-74
2024/03/09 08:05:24;;;;;;;24.45;16.02;;;16.30;99.70;;;;;;5028230;28;20033;-73
2024/03/09 08:07:52;;;;;;;23.02;15.27;;;16.40;99.50;;;;;;5030780;28;20021;-72
2024/03/09 08:10:20;;;;;;;21.90;13.25;;;16.50;99.40;;;;;;5030515;28;20108;-72
2024/03/09 08:12:46;;;;;;;27.02;15.68;;;16.50;99.30;;;;;;5030077;28;20025;-73
2024/03/09 08:15:12;;;;;;;;;;;16.40;99.40;;;;;;5029156;28;20052;-73
2024/03/09 08:17:42;;;;;;;25.45;15.15;;;15.90;99.90;;;;;;5030318;28;19979;-73
2024/03/09 08:20:08;;;;;;;28.08;14.82;;;15.70;99.90;;;;;;5029219;28;20402;-73
2024/03/09 08:22:40;;;;;;;25.73;14.95;;;15.50;99.90;;;;;;5029817;28;20060;-73
2024/03/09 08:25:11;;;;;;;23.42;14.57;;;15.30;99.90;;;;;;5028777;28;20030;-73
2024/03/09 08:27:41;;;;;;;21.15;13.45;;;15.20;99.90;;;;;;5024994;28;20029;-73
2024/03/09 08:30:14;;;;;;;24.48;13.98;;;15.10;99.90;;;;;;5057989;28;20025;-73
2024/03/09 08:32:53;;;;;;;28.50;13.25;;;15.00;99.90;;;;;;5025051;28;20557;-72
2024/03/09 08:35:20;;;;;;;25.52;14.02;;;15.00;99.90;;;;;;5026018;28;20028;-72
2024/03/09 08:37:47;;;;;;;24.63;13.25;;;14.90;99.90;;;;;;5026839;28;20135;-73
2024/03/09 08:40:18;;;;;;;92.72;58.50;;;14.90;99.90;;;;;;5025307;28;20036;-72
2024/03/09 08:42:44;;;;;;;67.57;37.67;;;14.90;99.90;;;;;;5026194;28;20021;-71
2024/03/09 08:45:10;;;;;;;56.90;33.42;;;14.80;99.90;;;;;;5025303;28;20029;-71
2024/03/09 08:47:36;;;;;;;59.73;35.57;;;14.90;99.90;;;;;;5026371;28;20087;-72
2024/03/09 08:50:03;;;;;;;60.88;31.02;;;14.80;99.90;;;;;;5026658;28;20251;-71
2024/03/09 08:52:31;;;;;;;57.95;31.88;;;14.80;99.90;;;;;;5026320;28;20134;-72
2024/03/09 08:54:58;;;;;;;51.90;33.25;;;14.70;99.90;;;;;;5025248;28;20022;-72
2024/03/09 08:57:24;;;;;;;49.83;30.02;;;14.70;99.90;;;;;;5024884;28;20036;-71
2024/03/09 08:59:53;;;;;;;53.47;31.90;;;14.70;99.90;;;;;;5026799;28;20371;-72
2024/03/09 09:02:22;;;;;;;43.58;28.38;;;14.70;99.90;;;;;;5024969;28;20069;-72
2024/03/09 09:04:48;;;;;;;42.38;27.58;;;14.60;99.90;;;;;;5025986;28;20021;-71
2024/03/09 09:07:15;;;;;;;44.45;27.67;;;14.60;99.90;;;;;;5025418;28;20029;-72
2024/03/09 09:09:42;;;;;;;39.90;26.17;;;14.60;99.90;;;;;;5026582;28;20091;-73
2024/03/09 09:12:10;;;;;;;;;;;14.70;99.90;;;;;;5025449;28;20033;-71
2024/03/09 09:14:42;;;;;;;42.33;25.58;;;14.70;99.90;;;;;;5023478;28;19901;-72
2024/03/09 09:17:09;;;;;;;42.65;25.38;;;14.70;99.90;;;;;;5026757;28;20032;-71
2024/03/09 09:19:38;;;;;;;38.28;24.63;;;14.70;99.90;;;;;;5058382;28;20037;-72
2024/03/09 09:22:08;;;;;;;43.95;24.15;;;14.80;99.90;;;;;;5025779;28;20172;-71
2024/03/09 09:24:34;;;;;;;44.55;23.73;;;14.80;99.90;;;;;;5023951;28;20060;-72
2024/03/09 09:26:59;;;;;;;36.77;22.60;;;14.90;99.90;;;;;;5024391;28;20049;-71
2024/03/09 09:29:28;;;;;;;38.30;22.17;;;15.00;99.90;;;;;;5025763;28;20454;-72
2024/03/09 09:32:00;;;;;;;35.80;22.20;;;15.10;99.90;;;;;;5026251;28;20112;-71
2024/03/09 09:34:29;;;;;;;33.78;22.17;;;15.10;99.90;;;;;;5026350;28;20029;-71
2024/03/09 09:36:55;;;;;;;38.05;21.50;;;15.10;99.90;;;;;;5028751;28;20045;-71
2024/03/09 09:39:24;;;;;;;35.75;22.80;;;15.20;99.90;;;;;;5029965;28;20047;-71
2024/03/09 09:41:57;;;;;;;34.15;20.60;;;15.20;99.90;;;;;;5029688;28;20067;-72
2024/03/09 09:44:28;;;;;;;34.13;21.80;;;15.40;99.90;;;;;;5030052;28;20021;-72
2024/03/09 09:46:57;;;;;;;32.08;21.88;;;15.90;99.90;;;;;;5064495;28;20033;-72
2024/03/09 09:49:24;;;;;;;29.55;20.27;;;16.60;99.90;;;;;;5051881;28;20017;-72
2024/03/09 09:51:57;;;;;;;32.08;20.80;;;17.00;99.70;;;;;;5031444;28;20131;-72
2024/03/09 09:54:26;;;;;;;28.73;20.13;;;17.10;99.40;;;;;;5032152;28;20171;-73
2024/03/09 09:56:56;;;;;;;33.25;20.88;;;17.30;99.20;;;;;;5033573;28;20412;-72
2024/03/09 09:59:23;;;;;;;29.95;20.70;;;17.80;98.70;;;;;;5031935;28;20021;-71
2024/03/09 10:01:49;;;;;;;28.02;18.77;;;18.40;98.00;;;;;;5033142;28;20026;-71
2024/03/09 10:04:18;;;;;;;28.35;18.90;;;18.60;97.60;;;;;;5029597;28;20087;-72
2024/03/09 10:06:44;;;;;;;29.20;19.15;;;18.30;97.90;;;;;;5031055;28;20056;-71
2024/03/09 10:09:10;;;;;;;29.45;18.10;;;18.40;98.00;;;;;;5032786;28;20104;-73
2024/03/09 10:11:36;;;;;;;30.35;18.77;;;18.60;97.70;;;;;;5031506;28;20569;-73
2024/03/09 10:14:02;;;;;;;28.23;16.57;;;18.40;97.90;;;;;;5032610;28;20055;-73
2024/03/09 10:16:30;;;;;;;27.90;17.55;;;18.70;97.90;;;;;;5032636;28;20067;-72
2024/03/09 10:18:57;;;;;;;23.88;17.58;;;19.20;97.20;;;;;;5033030;28;20021;-72
2024/03/09 10:21:29;;;;;;;;;;;19.40;96.80;;;;;;5033404;28;20018;-72
2024/03/09 10:24:02;;;;;;;24.95;16.95;;;19.70;96.60;;;;;;5032309;28;19913;-73
2024/03/09 10:26:29;;;;;;;24.88;16.20;;;20.50;95.80;;;;;;5031385;28;20037;-73
2024/03/09 10:28:58;;;;;;;24.63;15.93;;;21.10;95.20;;;;;;5032615;28;20013;-72
2024/03/09 10:31:24;;;;;;;20.95;14.95;;;20.60;95.40;;;;;;5032902;28;20032;-73
2024/03/09 10:34:10;;;;;;;26.33;16.35;;;20.50;95.70;;;;;;5032474;28;20030;-72
2024/03/09 10:36:37;;;;;;;22.58;16.42;;;20.00;96.40;;;;;;5029631;28;20069;-72
2024/03/09 10:39:04;;;;;;;23.35;15.40;;;20.60;95.80;;;;;;5032294;28;20025;-73
2024/03/09 10:41:30;;;;;;;;;;;21.60;94.80;;;;;;5033240;28;20017;-73
2024/03/09 10:43:56;;;;;;;20.80;14.27;;;21.50;94.70;;;;;;5032710;28;19920;-73
2024/03/09 10:46:27;;;;;;;;;;;20.60;95.50;;;;;;5031711;28;20095;-73
2024/03/09 10:48:57;;;;;;;22.88;14.70;;;19.80;96.50;;;;;;5026633;28;19955;-73
2024/03/09 10:51:36;;;;;;;22.15;14.48;;;20.00;96.40;;;;;;5031144;28;20108;-74
2024/03/09 10:54:13;;;;;;;21.90;14.63;;;19.80;96.80;;;;;;5031001;28;20061;-73
2024/03/09 10:56:42;;;;;;;17.23;12.85;;;20.60;96.10;;;;;;5037627;28;20068;-73
2024/03/09 10:59:10;;;;;;;21.63;13.57;;;21.00;95.50;;;;;;5023791;28;20056;-74
2024/03/09 11:01:37;;;;;;;18.85;13.10;;;21.60;95.10;;;;;;5032054;28;20689;-74
2024/03/09 11:04:04;;;;;;;20.23;13.82;;;21.50;95.20;;;;;;5030595;28;20033;-73
2024/03/09 11:06:30;;;;;;;16.30;11.98;;;21.30;95.50;;;;;;5060925;28;20458;-74
2024/03/09 11:08:57;;;;;;;19.45;12.50;;;21.90;95.40;;;;;;5031375;28;20060;-74
2024/03/09 11:11:26;;;;;;;19.05;12.95;;;23.00;94.20;;;;;;5027817;28;20082;-74
2024/03/09 11:13:53;;;;;;;17.90;12.68;;;23.20;93.90;;;;;;5028432;28;20030;-74
2024/03/09 11:16:24;;;;;;;20.45;13.00;;;23.00;94.00;;;;;;5026493;28;20061;-73
2024/03/09 11:18:56;;;;;;;16.40;11.38;;;22.10;94.80;;;;;;5027084;28;20025;-72
2024/03/09 11:21:35;;;;;;;21.02;11.38;;;21.90;95.30;;;;;;5031032;28;20093;-72
2024/03/09 11:24:08;;;;;;;20.45;12.10;;;21.50;95.50;;;;;;5031533;28;20033;-73
2024/03/09 11:26:54;;;;;;;16.23;11.20;;;21.30;95.90;;;;;;5030313;28;20367;-72
2024/03/09 11:29:22;;;;;;;18.95;11.07;;;21.60;95.40;;;;;;5021751;28;20083;-72
2024/03/09 11:31:51;;;;;;;25.65;12.32;;;22.20;95.00;;;;;;5063564;28;20025;-72
2024/03/09 11:34:23;;;;;;;16.40;10.57;;;22.10;94.90;;;;;;5030277;28;20025;-73
2024/03/09 11:36:55;;;;;;;18.02;11.07;;;21.80;95.30;;;;;;5031594;28;20094;-73
2024/03/09 11:39:36;;;;;;;18.70;11.15;;;21.90;95.30;;;;;;5030177;28;20017;-73
2024/03/09 11:42:11;;;;;;;18.42;10.75;;;22.60;94.60;;;;;;5029774;28;20031;-73
2024/03/09 11:44:38;;;;;;;17.15;12.23;;;22.50;94.50;;;;;;5027894;28;20417;-73
2024/03/09 11:47:05;;;;;;;18.63;10.77;;;22.40;94.80;;;;;;5030676;28;20021;-74
2024/03/09 11:49:35;;;;;;;21.05;10.90;;;21.50;95.50;;;;;;5030391;28;20022;-73
2024/03/09 11:52:02;;;;;;;17.15;10.82;;;20.80;96.60;;;;;;5030417;28;20137;-73
2024/03/09 11:54:29;;;;;;;15.68;10.52;;;20.50;96.80;;;;;;5021853;28;20241;-74
2024/03/09 11:56:58;;;;;;;24.80;10.65;;;20.30;97.00;;;;;;5029847;28;20112;-73
2024/03/09 11:59:25;;;;;;;19.63;10.77;;;20.00;97.40;;;;;;5029076;28;20041;-74
2024/03/09 12:02:06;;;;;;;16.17;10.40;;;19.80;97.80;;;;;;5031419;28;20029;-74
2024/03/09 12:04:32;;;;;;;24.02;10.90;;;19.80;98.00;;;;;;5031000;28;20021;-75
2024/03/09 12:07:02;;;;;;;23.80;10.95;;;19.80;98.00;;;;;;5031602;28;20437;-74
2024/03/09 12:09:29;;;;;;;19.20;11.02;;;19.80;98.00;;;;;;5029297;28;20035;-74
2024/03/09 12:11:55;;;;;;;18.90;10.23;;;20.20;97.70;;;;;;5031464;28;20104;-73
2024/03/09 12:14:20;;;;;;;20.15;11.13;;;20.20;97.50;;;;;;5029537;28;20117;-73
2024/03/09 12:16:51;;;;;;;19.97;9.80;;;20.10;97.80;;;;;;5062478;28;20052;-73
2024/03/09 12:19:17;;;;;;;16.35;10.38;;;20.00;97.90;;;;;;5025421;28;20029;-73
2024/03/09 12:21:44;;;;;;;16.52;9.10;;;20.00;98.00;;;;;;5030714;28;20029;-72
2024/03/09 12:24:12;;;;;;;;;;;19.90;98.00;;;;;;5031341;28;20139;-72
2024/03/09 12:26:38;;;;;;;17.63;9.32;;;19.80;98.20;;;;;;5030850;28;19905;-74
2024/03/09 12:29:05;;;;;;;18.27;9.80;;;19.70;98.20;;;;;;5030719;28;20036;-73
2024/03/09 12:31:32;;;;;;;16.02;9.15;;;19.70;98.30;;;;;;5030340;28;20029;-74
2024/03/09 12:33:58;;;;;;;17.88;9.63;;;19.50;98.50;;;;;;5062579;28;20215;-73
2024/03/09 12:36:24;;;;;;;16.30;9.40;;;19.40;98.60;;;;;;5029165;28;20029;-74
2024/03/09 12:38:51;;;;;;;14.70;8.32;;;19.40;98.70;;;;;;5062397;28;20071;-75